sensor_id;sensor_type;location;lat;lon;timestamp;pressure;altitude;pressure_sealevel;temperature
34807;BMP280;18310;55.586;12.286;2023-06-04T00:02:16;102269.25;;;17.60
34807;BMP280;18310;55.586;12.286;2023-06-04T00:05:20;102273.53;;;17.57
34807;BMP280;18310;55.586;12.286;2023-06-04T00:08:27;102269.53;;;17.55
34807;BMP280;18310;55.586;12.286;2023-06-04T00:11:30;102271.84;;;17.53
34807;BMP280;18310;55.586;12.286;2023-06-04T00:14:36;102257.06;;;17.41
34807;BMP280;18310;55.586;12.286;2023-06-04T00:17:40;102263.91;;;17.48
34807;BMP280;18310;55.586;12.286;2023-06-04T00:20:44;102270.56;;;17.47
34807;BMP280;18310;55.586;12.286;2023-06-04T00:23:47;102264.59;;;17.44
34807;BMP280;18310;55.586;12.286;2023-06-04T00:26:50;102272.44;;;17.42
34807;BMP280;18310;55.586;12.286;2023-06-04T00:29:53;102269.56;;;17.39
34807;BMP280;18310;55.586;12.286;2023-06-04T00:32:58;102269.97;;;17.37
34807;BMP280;18310;55.586;12.286;2023-06-04T00:36:02;102261.25;;;17.35
34807;BMP280;18310;55.586;12.286;2023-06-04T00:39:05;102259.25;;;17.32
34807;BMP280;18310;55.586;12.286;2023-06-04T00:42:09;102270.59;;;17.31
34807;BMP280;18310;55.586;12.286;2023-06-04T00:45:12;102265.44;;;17.29
34807;BMP280;18310;55.586;12.286;2023-06-04T00:48:19;102270.53;;;17.27
34807;BMP280;18310;55.586;12.286;2023-06-04T00:51:22;102245.88;;;17.15
34807;BMP280;18310;55.586;12.286;2023-06-04T00:54:26;102262.56;;;17.22
34807;BMP280;18310;55.586;12.286;2023-06-04T00:57:30;102251.81;;;17.17
34807;BMP280;18310;55.586;12.286;2023-06-04T01:00:33;102264.44;;;17.18
34807;BMP280;18310;55.586;12.286;2023-06-04T01:03:42;102262.41;;;17.15
34807;BMP280;18310;55.586;12.286;2023-06-04T01:06:50;102260.78;;;17.14
34807;BMP280;18310;55.586;12.286;2023-06-04T01:09:54;102264.28;;;17.11
34807;BMP280;18310;55.586;12.286;2023-06-04T01:12:57;102261.78;;;17.06
34807;BMP280;18310;55.586;12.286;2023-06-04T01:16:01;102262.13;;;17.05
34807;BMP280;18310;55.586;12.286;2023-06-04T01:19:15;102254.63;;;17.02
34807;BMP280;18310;55.586;12.286;2023-06-04T01:22:33;102255.78;;;17.01
34807;BMP280;18310;55.586;12.286;2023-06-04T01:26:03;102260.03;;;16.98
34807;BMP280;18310;55.586;12.286;2023-06-04T01:29:07;102255.53;;;16.90
34807;BMP280;18310;55.586;12.286;2023-06-04T01:32:10;102259.78;;;16.87
34807;BMP280;18310;55.586;12.286;2023-06-04T01:35:13;102261.66;;;16.83
34807;BMP280;18310;55.586;12.286;2023-06-04T01:38:17;102256.06;;;16.80
34807;BMP280;18310;55.586;12.286;2023-06-04T01:41:22;102267.00;;;16.76
34807;BMP280;18310;55.586;12.286;2023-06-04T01:44:25;102259.34;;;16.70
34807;BMP280;18310;55.586;12.286;2023-06-04T01:47:28;102262.88;;;16.70
34807;BMP280;18310;55.586;12.286;2023-06-04T01:50:31;102253.56;;;16.59
34807;BMP280;18310;55.586;12.286;2023-06-04T01:53:34;102267.88;;;16.65
34807;BMP280;18310;55.586;12.286;2023-06-04T01:56:39;102265.03;;;16.61
34807;BMP280;18310;55.586;12.286;2023-06-04T01:59:43;102258.56;;;16.54
34807;BMP280;18310;55.586;12.286;2023-06-04T02:02:46;102257.66;;;16.50
34807;BMP280;18310;55.586;12.286;2023-06-04T02:05:51;102259.09;;;16.43
34807;BMP280;18310;55.586;12.286;2023-06-04T02:08:54;102244.63;;;16.31
34807;BMP280;18310;55.586;12.286;2023-06-04T02:11:58;102256.97;;;16.37
34807;BMP280;18310;55.586;12.286;2023-06-04T02:15:02;102252.50;;;16.32
34807;BMP280;18310;55.586;12.286;2023-06-04T02:18:13;102261.19;;;16.19
34807;BMP280;18310;55.586;12.286;2023-06-04T02:21:18;102257.31;;;16.20
34807;BMP280;18310;55.586;12.286;2023-06-04T02:24:21;102250.44;;;16.14
34807;BMP280;18310;55.586;12.286;2023-06-04T02:27:26;102256.69;;;16.11
34807;BMP280;18310;55.586;12.286;2023-06-04T02:30:30;102262.50;;;16.09
34807;BMP280;18310;55.586;12.286;2023-06-04T02:33:33;102259.66;;;16.06
34807;BMP280;18310;55.586;12.286;2023-06-04T02:36:37;102256.78;;;16.02
34807;BMP280;18310;55.586;12.286;2023-06-04T02:39:40;102258.75;;;16.02
34807;BMP280;18310;55.586;12.286;2023-06-04T02:42:44;102256.72;;;15.99
34807;BMP280;18310;55.586;12.286;2023-06-04T02:45:48;102250.66;;;15.93
34807;BMP280;18310;55.586;12.286;2023-06-04T02:48:51;102266.81;;;15.95
34807;BMP280;18310;55.586;12.286;2023-06-04T02:51:55;102260.38;;;15.90
34807;BMP280;18310;55.586;12.286;2023-06-04T02:54:58;102263.06;;;15.87
34807;BMP280;18310;55.586;12.286;2023-06-04T02:58:02;102261.47;;;15.86
34807;BMP280;18310;55.586;12.286;2023-06-04T03:01:05;102264.22;;;15.86
34807;BMP280;18310;55.586;12.286;2023-06-04T03:04:10;102265.00;;;15.86
34807;BMP280;18310;55.586;12.286;2023-06-04T03:07:17;102270.84;;;15.85
34807;BMP280;18310;55.586;12.286;2023-06-04T03:10:22;102261.81;;;15.84
34807;BMP280;18310;55.586;12.286;2023-06-04T03:13:27;102261.03;;;15.84
34807;BMP280;18310;55.586;12.286;2023-06-04T03:16:30;102270.03;;;15.84
34807;BMP280;18310;55.586;12.286;2023-06-04T03:19:35;102268.91;;;15.85
34807;BMP280;18310;55.586;12.286;2023-06-04T03:22:38;102266.28;;;15.89
34807;BMP280;18310;55.586;12.286;2023-06-04T03:25:42;102268.28;;;15.92
34807;BMP280;18310;55.586;12.286;2023-06-04T03:28:46;102263.38;;;15.98
34807;BMP280;18310;55.586;12.286;2023-06-04T03:31:50;102270.53;;;16.02
34807;BMP280;18310;55.586;12.286;2023-06-04T03:34:53;102278.53;;;16.07
34807;BMP280;18310;55.586;12.286;2023-06-04T03:37:57;102263.31;;;16.10
34807;BMP280;18310;55.586;12.286;2023-06-04T03:41:00;102271.72;;;16.17
34807;BMP280;18310;55.586;12.286;2023-06-04T03:44:05;102268.38;;;16.23
34807;BMP280;18310;55.586;12.286;2023-06-04T03:47:08;102273.59;;;16.28
34807;BMP280;18310;55.586;12.286;2023-06-04T03:50:12;102275.75;;;16.35
34807;BMP280;18310;55.586;12.286;2023-06-04T03:53:15;102271.69;;;16.45
34807;BMP280;18310;55.586;12.286;2023-06-04T03:56:18;102263.97;;;16.50
34807;BMP280;18310;55.586;12.286;2023-06-04T03:59:23;102270.47;;;16.58
34807;BMP280;18310;55.586;12.286;2023-06-04T04:02:26;102270.19;;;16.63
34807;BMP280;18310;55.586;12.286;2023-06-04T04:05:29;102277.00;;;16.69
34807;BMP280;18310;55.586;12.286;2023-06-04T04:08:32;102274.59;;;16.83
34807;BMP280;18310;55.586;12.286;2023-06-04T04:11:36;102272.97;;;17.13
34807;BMP280;18310;55.586;12.286;2023-06-04T04:14:40;102273.00;;;17.52
34807;BMP280;18310;55.586;12.286;2023-06-04T04:17:43;102272.66;;;17.91
34807;BMP280;18310;55.586;12.286;2023-06-04T04:20:47;102275.09;;;18.38
34807;BMP280;18310;55.586;12.286;2023-06-04T04:23:50;102270.66;;;18.83
34807;BMP280;18310;55.586;12.286;2023-06-04T04:26:54;102266.59;;;19.29
34807;BMP280;18310;55.586;12.286;2023-06-04T04:29:59;102269.88;;;19.75
34807;BMP280;18310;55.586;12.286;2023-06-04T04:33:03;102264.84;;;20.21
34807;BMP280;18310;55.586;12.286;2023-06-04T04:36:07;102265.19;;;20.67
34807;BMP280;18310;55.586;12.286;2023-06-04T04:39:15;102262.25;;;21.04
34807;BMP280;18310;55.586;12.286;2023-06-04T04:42:18;102264.72;;;21.37
34807;BMP280;18310;55.586;12.286;2023-06-04T04:45:23;102258.88;;;21.70
34807;BMP280;18310;55.586;12.286;2023-06-04T04:48:26;102256.13;;;22.02
34807;BMP280;18310;55.586;12.286;2023-06-04T04:51:29;102266.44;;;22.37
34807;BMP280;18310;55.586;12.286;2023-06-04T04:54:33;102269.16;;;22.69
34807;BMP280;18310;55.586;12.286;2023-06-04T04:57:36;102272.63;;;23.01
34807;BMP280;18310;55.586;12.286;2023-06-04T05:00:41;102264.06;;;23.40
34807;BMP280;18310;55.586;12.286;2023-06-04T05:03:44;102242.06;;;23.67
34807;BMP280;18310;55.586;12.286;2023-06-04T05:06:48;102263.97;;;24.09
34807;BMP280;18310;55.586;12.286;2023-06-04T05:09:51;102262.91;;;24.37
34807;BMP280;18310;55.586;12.286;2023-06-04T05:12:56;102259.44;;;24.63
34807;BMP280;18310;55.586;12.286;2023-06-04T05:16:01;102248.75;;;24.92
34807;BMP280;18310;55.586;12.286;2023-06-04T05:19:08;102261.16;;;25.14
34807;BMP280;18310;55.586;12.286;2023-06-04T05:22:12;102260.44;;;25.37
34807;BMP280;18310;55.586;12.286;2023-06-04T05:25:18;102262.09;;;25.57
34807;BMP280;18310;55.586;12.286;2023-06-04T05:28:21;102264.97;;;25.77
34807;BMP280;18310;55.586;12.286;2023-06-04T05:31:28;102263.03;;;25.97
34807;BMP280;18310;55.586;12.286;2023-06-04T05:34:31;102267.25;;;26.09
34807;BMP280;18310;55.586;12.286;2023-06-04T05:37:35;102269.66;;;26.26
34807;BMP280;18310;55.586;12.286;2023-06-04T05:40:40;102269.69;;;26.46
34807;BMP280;18310;55.586;12.286;2023-06-04T05:43:43;102276.78;;;26.70
34807;BMP280;18310;55.586;12.286;2023-06-04T05:46:48;102273.09;;;26.93
34807;BMP280;18310;55.586;12.286;2023-06-04T05:49:52;102275.84;;;27.12
34807;BMP280;18310;55.586;12.286;2023-06-04T05:52:55;102278.94;;;27.18
34807;BMP280;18310;55.586;12.286;2023-06-04T05:55:58;102282.81;;;27.24
34807;BMP280;18310;55.586;12.286;2023-06-04T05:59:02;102277.81;;;27.32
34807;BMP280;18310;55.586;12.286;2023-06-04T06:02:06;102284.97;;;27.49
34807;BMP280;18310;55.586;12.286;2023-06-04T06:05:09;102286.47;;;27.69
34807;BMP280;18310;55.586;12.286;2023-06-04T06:08:13;102295.53;;;27.89
34807;BMP280;18310;55.586;12.286;2023-06-04T06:11:17;102276.31;;;27.92
34807;BMP280;18310;55.586;12.286;2023-06-04T06:14:20;102288.59;;;28.10
34807;BMP280;18310;55.586;12.286;2023-06-04T06:17:26;102287.31;;;28.27
34807;BMP280;18310;55.586;12.286;2023-06-04T06:20:30;102284.56;;;28.40
34807;BMP280;18310;55.586;12.286;2023-06-04T06:23:34;102283.16;;;28.61
34807;BMP280;18310;55.586;12.286;2023-06-04T06:26:37;102290.69;;;28.76
34807;BMP280;18310;55.586;12.286;2023-06-04T06:29:40;102281.97;;;28.99
34807;BMP280;18310;55.586;12.286;2023-06-04T06:32:45;102291.84;;;29.16
34807;BMP280;18310;55.586;12.286;2023-06-04T06:35:50;102295.97;;;29.37
34807;BMP280;18310;55.586;12.286;2023-06-04T06:38:53;102289.22;;;29.47
34807;BMP280;18310;55.586;12.286;2023-06-04T06:41:56;102295.50;;;29.39
34807;BMP280;18310;55.586;12.286;2023-06-04T06:44:59;102300.38;;;29.25
34807;BMP280;18310;55.586;12.286;2023-06-04T06:48:06;102308.09;;;29.21
34807;BMP280;18310;55.586;12.286;2023-06-04T06:51:09;102301.59;;;29.24
34807;BMP280;18310;55.586;12.286;2023-06-04T06:54:35;102313.59;;;29.38
34807;BMP280;18310;55.586;12.286;2023-06-04T06:57:39;102314.34;;;29.51
34807;BMP280;18310;55.586;12.286;2023-06-04T07:00:42;102308.50;;;29.58
34807;BMP280;18310;55.586;12.286;2023-06-04T07:03:45;102306.84;;;29.82
34807;BMP280;18310;55.586;12.286;2023-06-04T07:06:49;102308.09;;;30.15
34807;BMP280;18310;55.586;12.286;2023-06-04T07:09:54;102304.66;;;30.33
34807;BMP280;18310;55.586;12.286;2023-06-04T07:12:57;102304.19;;;30.34
34807;BMP280;18310;55.586;12.286;2023-06-04T07:16:01;102306.47;;;30.27
34807;BMP280;18310;55.586;12.286;2023-06-04T07:19:04;102313.59;;;30.19
34807;BMP280;18310;55.586;12.286;2023-06-04T07:22:07;102316.78;;;30.08
34807;BMP280;18310;55.586;12.286;2023-06-04T07:25:12;102312.19;;;30.02
34807;BMP280;18310;55.586;12.286;2023-06-04T07:28:15;102315.72;;;29.93
34807;BMP280;18310;55.586;12.286;2023-06-04T07:31:18;102323.25;;;29.49
34807;BMP280;18310;55.586;12.286;2023-06-04T07:34:21;102320.53;;;28.70
34807;BMP280;18310;55.586;12.286;2023-06-04T07:37:25;102312.41;;;28.02
34807;BMP280;18310;55.586;12.286;2023-06-04T07:40:29;102311.81;;;27.46
34807;BMP280;18310;55.586;12.286;2023-06-04T07:43:33;102325.19;;;27.03
34807;BMP280;18310;55.586;12.286;2023-06-04T07:46:36;102312.53;;;26.59
34807;BMP280;18310;55.586;12.286;2023-06-04T07:49:40;102321.16;;;26.25
34807;BMP280;18310;55.586;12.286;2023-06-04T07:53:02;102319.94;;;26.03
34807;BMP280;18310;55.586;12.286;2023-06-04T07:56:07;102325.06;;;25.85
34807;BMP280;18310;55.586;12.286;2023-06-04T07:59:10;102325.00;;;25.62
34807;BMP280;18310;55.586;12.286;2023-06-04T08:02:13;102324.00;;;25.49
34807;BMP280;18310;55.586;12.286;2023-06-04T08:05:18;102327.75;;;25.39
34807;BMP280;18310;55.586;12.286;2023-06-04T08:08:21;102329.81;;;25.31
34807;BMP280;18310;55.586;12.286;2023-06-04T08:11:26;102331.22;;;25.16
34807;BMP280;18310;55.586;12.286;2023-06-04T08:14:51;102337.03;;;24.98
34807;BMP280;18310;55.586;12.286;2023-06-04T08:17:58;102334.31;;;24.91
34807;BMP280;18310;55.586;12.286;2023-06-04T08:21:01;102329.91;;;24.94
34807;BMP280;18310;55.586;12.286;2023-06-04T08:24:05;102323.19;;;24.91
34807;BMP280;18310;55.586;12.286;2023-06-04T08:27:08;102335.06;;;24.95
34807;BMP280;18310;55.586;12.286;2023-06-04T08:30:13;102333.41;;;25.01
34807;BMP280;18310;55.586;12.286;2023-06-04T08:33:17;102335.72;;;25.06
34807;BMP280;18310;55.586;12.286;2023-06-04T08:36:21;102340.44;;;25.09
34807;BMP280;18310;55.586;12.286;2023-06-04T08:39:24;102330.50;;;25.12
34807;BMP280;18310;55.586;12.286;2023-06-04T08:42:29;102334.47;;;25.11
34807;BMP280;18310;55.586;12.286;2023-06-04T08:45:38;102336.03;;;25.15
34807;BMP280;18310;55.586;12.286;2023-06-04T08:48:42;102338.38;;;25.17
34807;BMP280;18310;55.586;12.286;2023-06-04T08:51:46;102340.41;;;25.13
34807;BMP280;18310;55.586;12.286;2023-06-04T08:54:49;102334.81;;;25.16
34807;BMP280;18310;55.586;12.286;2023-06-04T08:57:54;102336.69;;;25.23
34807;BMP280;18310;55.586;12.286;2023-06-04T09:00:59;102338.97;;;25.32
34807;BMP280;18310;55.586;12.286;2023-06-04T09:04:04;102333.31;;;25.39
34807;BMP280;18310;55.586;12.286;2023-06-04T09:07:12;102329.25;;;25.43
34807;BMP280;18310;55.586;12.286;2023-06-04T09:10:18;102337.56;;;25.47
34807;BMP280;18310;55.586;12.286;2023-06-04T09:13:22;102346.72;;;25.47
34807;BMP280;18310;55.586;12.286;2023-06-04T09:16:30;102344.69;;;25.51
34807;BMP280;18310;55.586;12.286;2023-06-04T09:19:38;102334.59;;;25.61
34807;BMP280;18310;55.586;12.286;2023-06-04T09:22:41;102332.84;;;25.70
34807;BMP280;18310;55.586;12.286;2023-06-04T09:25:45;102343.19;;;25.70
34807;BMP280;18310;55.586;12.286;2023-06-04T09:28:48;102340.00;;;25.71
34807;BMP280;18310;55.586;12.286;2023-06-04T09:31:58;102341.88;;;25.78
34807;BMP280;18310;55.586;12.286;2023-06-04T09:35:09;102337.88;;;25.79
34807;BMP280;18310;55.586;12.286;2023-06-04T09:38:13;102341.88;;;25.78
34807;BMP280;18310;55.586;12.286;2023-06-04T09:41:17;102336.22;;;25.85
34807;BMP280;18310;55.586;12.286;2023-06-04T09:44:26;102337.25;;;25.95
34807;BMP280;18310;55.586;12.286;2023-06-04T09:47:40;102334.72;;;26.00
34807;BMP280;18310;55.586;12.286;2023-06-04T09:50:44;102334.03;;;25.96
34807;BMP280;18310;55.586;12.286;2023-06-04T09:54:17;102332.06;;;25.93
34807;BMP280;18310;55.586;12.286;2023-06-04T09:57:21;102345.97;;;25.97
34807;BMP280;18310;55.586;12.286;2023-06-04T10:00:24;102340.84;;;25.95
34807;BMP280;18310;55.586;12.286;2023-06-04T10:03:31;102334.50;;;25.91
34807;BMP280;18310;55.586;12.286;2023-06-04T10:06:36;102325.66;;;25.96
34807;BMP280;18310;55.586;12.286;2023-06-04T10:09:43;102321.25;;;25.99
34807;BMP280;18310;55.586;12.286;2023-06-04T10:12:50;102328.25;;;26.07
34807;BMP280;18310;55.586;12.286;2023-06-04T10:15:56;102336.50;;;26.14
34807;BMP280;18310;55.586;12.286;2023-06-04T10:19:00;102330.88;;;26.17
34807;BMP280;18310;55.586;12.286;2023-06-04T10:22:04;102331.66;;;26.18
34807;BMP280;18310;55.586;12.286;2023-06-04T10:25:09;102328.09;;;26.17
34807;BMP280;18310;55.586;12.286;2023-06-04T10:28:13;102333.63;;;26.21
34807;BMP280;18310;55.586;12.286;2023-06-04T10:31:17;102333.53;;;26.24
34807;BMP280;18310;55.586;12.286;2023-06-04T10:34:20;102340.03;;;26.18
34807;BMP280;18310;55.586;12.286;2023-06-04T10:37:25;102331.22;;;26.19
34807;BMP280;18310;55.586;12.286;2023-06-04T10:40:32;102327.47;;;26.06
34807;BMP280;18310;55.586;12.286;2023-06-04T10:43:36;102334.41;;;25.98
34807;BMP280;18310;55.586;12.286;2023-06-04T10:46:40;102341.25;;;25.93
34807;BMP280;18310;55.586;12.286;2023-06-04T10:49:44;102342.00;;;25.98
34807;BMP280;18310;55.586;12.286;2023-06-04T10:52:51;102337.53;;;26.00
34807;BMP280;18310;55.586;12.286;2023-06-04T10:55:56;102335.06;;;26.06
34807;BMP280;18310;55.586;12.286;2023-06-04T10:59:00;102336.16;;;26.12
34807;BMP280;18310;55.586;12.286;2023-06-04T11:02:05;102332.56;;;26.11
34807;BMP280;18310;55.586;12.286;2023-06-04T11:05:08;102339.06;;;26.05
34807;BMP280;18310;55.586;12.286;2023-06-04T11:08:13;102332.41;;;25.99
34807;BMP280;18310;55.586;12.286;2023-06-04T11:11:17;102337.59;;;25.97
34807;BMP280;18310;55.586;12.286;2023-06-04T11:14:21;102328.75;;;26.02
34807;BMP280;18310;55.586;12.286;2023-06-04T11:17:24;102335.47;;;26.04
34807;BMP280;18310;55.586;12.286;2023-06-04T11:20:27;102342.72;;;26.02
34807;BMP280;18310;55.586;12.286;2023-06-04T11:23:33;102335.53;;;26.01
34807;BMP280;18310;55.586;12.286;2023-06-04T11:27:10;102331.94;;;26.00
34807;BMP280;18310;55.586;12.286;2023-06-04T11:30:34;102326.31;;;26.04
34807;BMP280;18310;55.586;12.286;2023-06-04T11:33:43;102326.22;;;26.11
34807;BMP280;18310;55.586;12.286;2023-06-04T11:36:47;102326.88;;;26.18
34807;BMP280;18310;55.586;12.286;2023-06-04T11:39:51;102324.81;;;26.22
34807;BMP280;18310;55.586;12.286;2023-06-04T11:42:56;102318.38;;;26.25
34807;BMP280;18310;55.586;12.286;2023-06-04T11:46:05;102322.00;;;26.22
34807;BMP280;18310;55.586;12.286;2023-06-04T11:49:14;102314.88;;;26.21
34807;BMP280;18310;55.586;12.286;2023-06-04T11:52:19;102322.50;;;26.17
34807;BMP280;18310;55.586;12.286;2023-06-04T11:55:25;102331.50;;;26.05
34807;BMP280;18310;55.586;12.286;2023-06-04T11:58:30;102333.31;;;25.92
34807;BMP280;18310;55.586;12.286;2023-06-04T12:01:34;102329.84;;;25.84
34807;BMP280;18310;55.586;12.286;2023-06-04T12:05:10;102333.88;;;25.80
34807;BMP280;18310;55.586;12.286;2023-06-04T12:08:14;102330.44;;;25.72
34807;BMP280;18310;55.586;12.286;2023-06-04T12:11:35;102346.19;;;25.59
34807;BMP280;18310;55.586;12.286;2023-06-04T12:14:39;102349.00;;;25.56
34807;BMP280;18310;55.586;12.286;2023-06-04T12:17:50;102350.72;;;25.46
34807;BMP280;18310;55.586;12.286;2023-06-04T12:20:57;102336.94;;;25.36
34807;BMP280;18310;55.586;12.286;2023-06-04T12:24:08;102329.94;;;25.20
34807;BMP280;18310;55.586;12.286;2023-06-04T12:30:19;102347.69;;;25.07
34807;BMP280;18310;55.586;12.286;2023-06-04T12:33:23;102338.59;;;24.99
34807;BMP280;18310;55.586;12.286;2023-06-04T12:36:26;102342.16;;;25.00
34807;BMP280;18310;55.586;12.286;2023-06-04T12:39:30;102334.34;;;24.88
34807;BMP280;18310;55.586;12.286;2023-06-04T12:42:33;102341.78;;;24.98
34807;BMP280;18310;55.586;12.286;2023-06-04T12:45:37;102338.97;;;25.01
34807;BMP280;18310;55.586;12.286;2023-06-04T12:48:40;102340.13;;;25.04
34807;BMP280;18310;55.586;12.286;2023-06-04T12:51:44;102348.47;;;25.07
34807;BMP280;18310;55.586;12.286;2023-06-04T12:54:48;102333.31;;;25.08
34807;BMP280;18310;55.586;12.286;2023-06-04T12:57:52;102338.44;;;25.10
34807;BMP280;18310;55.586;12.286;2023-06-04T13:00:56;102339.59;;;25.16
34807;BMP280;18310;55.586;12.286;2023-06-04T13:04:00;102339.06;;;25.24
34807;BMP280;18310;55.586;12.286;2023-06-04T13:07:03;102336.63;;;25.30
34807;BMP280;18310;55.586;12.286;2023-06-04T13:10:07;102340.13;;;25.34
34807;BMP280;18310;55.586;12.286;2023-06-04T13:13:11;102341.28;;;25.37
34807;BMP280;18310;55.586;12.286;2023-06-04T13:16:15;102335.75;;;25.33
34807;BMP280;18310;55.586;12.286;2023-06-04T13:19:18;102329.53;;;25.25
34807;BMP280;18310;55.586;12.286;2023-06-04T13:22:23;102331.16;;;25.19
34807;BMP280;18310;55.586;12.286;2023-06-04T13:25:26;102329.16;;;25.20
34807;BMP280;18310;55.586;12.286;2023-06-04T13:28:30;102332.41;;;25.18
34807;BMP280;18310;55.586;12.286;2023-06-04T13:31:35;102336.56;;;25.34
34807;BMP280;18310;55.586;12.286;2023-06-04T13:34:39;102330.53;;;25.39
34807;BMP280;18310;55.586;12.286;2023-06-04T13:37:43;102336.97;;;25.32
34807;BMP280;18310;55.586;12.286;2023-06-04T13:40:46;102328.19;;;25.34
34807;BMP280;18310;55.586;12.286;2023-06-04T13:43:49;102329.19;;;25.47
34807;BMP280;18310;55.586;12.286;2023-06-04T13:46:53;102329.56;;;25.52
34807;BMP280;18310;55.586;12.286;2023-06-04T13:49:57;102331.16;;;25.50
34807;BMP280;18310;55.586;12.286;2023-06-04T13:53:00;102331.63;;;25.45
34807;BMP280;18310;55.586;12.286;2023-06-04T13:56:04;102336.94;;;25.36
34807;BMP280;18310;55.586;12.286;2023-06-04T13:59:07;102342.25;;;25.23
34807;BMP280;18310;55.586;12.286;2023-06-04T14:02:12;102330.50;;;25.12
34807;BMP280;18310;55.586;12.286;2023-06-04T14:05:15;102337.38;;;25.00
34807;BMP280;18310;55.586;12.286;2023-06-04T14:08:19;102337.41;;;24.97
34807;BMP280;18310;55.586;12.286;2023-06-04T14:11:22;102339.50;;;24.89
34807;BMP280;18310;55.586;12.286;2023-06-04T14:14:25;102329.66;;;24.81
34807;BMP280;18310;55.586;12.286;2023-06-04T14:17:31;102333.31;;;24.75
34807;BMP280;18310;55.586;12.286;2023-06-04T14:20:36;102334.59;;;24.66
34807;BMP280;18310;55.586;12.286;2023-06-04T14:23:39;102331.91;;;24.56
34807;BMP280;18310;55.586;12.286;2023-06-04T14:26:43;102328.34;;;24.55
34807;BMP280;18310;55.586;12.286;2023-06-04T14:29:46;102325.59;;;24.52
34807;BMP280;18310;55.586;12.286;2023-06-04T14:32:52;102320.91;;;24.42
34807;BMP280;18310;55.586;12.286;2023-06-04T14:35:55;102318.88;;;24.49
34807;BMP280;18310;55.586;12.286;2023-06-04T14:38:58;102314.84;;;24.50
34807;BMP280;18310;55.586;12.286;2023-06-04T14:42:02;102316.78;;;24.60
34807;BMP280;18310;55.586;12.286;2023-06-04T14:45:07;102322.59;;;24.73
34807;BMP280;18310;55.586;12.286;2023-06-04T14:48:12;102329.59;;;24.88
34807;BMP280;18310;55.586;12.286;2023-06-04T14:51:17;102324.38;;;24.90
34807;BMP280;18310;55.586;12.286;2023-06-04T14:54:21;102324.38;;;24.90
34807;BMP280;18310;55.586;12.286;2023-06-04T14:57:24;102320.38;;;24.95
34807;BMP280;18310;55.586;12.286;2023-06-04T15:00:28;102319.56;;;24.94
34807;BMP280;18310;55.586;12.286;2023-06-04T15:03:32;102315.56;;;24.95
34807;BMP280;18310;55.586;12.286;2023-06-04T15:06:36;102318.72;;;24.97
34807;BMP280;18310;55.586;12.286;2023-06-04T15:09:39;102315.47;;;25.02
34807;BMP280;18310;55.586;12.286;2023-06-04T15:12:42;102310.59;;;25.10
34807;BMP280;18310;55.586;12.286;2023-06-04T15:15:45;102312.03;;;25.21
34807;BMP280;18310;55.586;12.286;2023-06-04T15:18:50;102318.31;;;25.29
34807;BMP280;18310;55.586;12.286;2023-06-04T15:21:53;102314.25;;;25.34
34807;BMP280;18310;55.586;12.286;2023-06-04T15:24:57;102311.38;;;25.41
34807;BMP280;18310;55.586;12.286;2023-06-04T15:28:00;102301.81;;;25.42
34807;BMP280;18310;55.586;12.286;2023-06-04T15:31:03;102313.22;;;25.51
34807;BMP280;18310;55.586;12.286;2023-06-04T15:34:28;102303.50;;;25.62
34807;BMP280;18310;55.586;12.286;2023-06-04T15:37:32;102299.84;;;25.65
34807;BMP280;18310;55.586;12.286;2023-06-04T15:40:35;102300.28;;;25.64
34807;BMP280;18310;55.586;12.286;2023-06-04T15:43:38;102304.34;;;25.59
34807;BMP280;18310;55.586;12.286;2023-06-04T15:46:42;102301.16;;;25.57
34807;BMP280;18310;55.586;12.286;2023-06-04T15:53:49;102302.34;;;25.56
34807;BMP280;18310;55.586;12.286;2023-06-04T15:56:52;102300.34;;;25.57
34807;BMP280;18310;55.586;12.286;2023-06-04T15:59:56;102300.44;;;25.53
34807;BMP280;18310;55.586;12.286;2023-06-04T16:02:59;102303.66;;;25.52
34807;BMP280;18310;55.586;12.286;2023-06-04T16:06:02;102298.13;;;25.48
34807;BMP280;18310;55.586;12.286;2023-06-04T16:09:08;102297.28;;;25.51
34807;BMP280;18310;55.586;12.286;2023-06-04T16:12:11;102298.06;;;25.52
34807;BMP280;18310;55.586;12.286;2023-06-04T16:15:14;102298.13;;;25.48
34807;BMP280;18310;55.586;12.286;2023-06-04T16:18:18;102295.00;;;25.43
34807;BMP280;18310;55.586;12.286;2023-06-04T16:21:21;102301.47;;;25.36
34807;BMP280;18310;55.586;12.286;2023-06-04T16:24:26;102299.09;;;25.35
34807;BMP280;18310;55.586;12.286;2023-06-04T16:27:29;102293.28;;;25.25
34807;BMP280;18310;55.586;12.286;2023-06-04T16:30:33;102291.38;;;25.19
34807;BMP280;18310;55.586;12.286;2023-06-04T16:33:36;102300.09;;;25.21
34807;BMP280;18310;55.586;12.286;2023-06-04T16:36:39;102293.00;;;25.16
34807;BMP280;18310;55.586;12.286;2023-06-04T16:39:44;102278.78;;;25.07
34807;BMP280;18310;55.586;12.286;2023-06-04T16:42:47;102286.41;;;25.03
34807;BMP280;18310;55.586;12.286;2023-06-04T16:45:50;102283.34;;;24.94
34807;BMP280;18310;55.586;12.286;2023-06-04T16:48:54;102282.69;;;24.83
34807;BMP280;18310;55.586;12.286;2023-06-04T16:51:57;102289.09;;;24.77
34807;BMP280;18310;55.586;12.286;2023-06-04T16:55:02;102282.84;;;24.69
34807;BMP280;18310;55.586;12.286;2023-06-04T16:58:06;102286.84;;;24.64
34807;BMP280;18310;55.586;12.286;2023-06-04T17:01:09;102287.34;;;24.59
34807;BMP280;18310;55.586;12.286;2023-06-04T17:04:13;102285.41;;;24.53
34807;BMP280;18310;55.586;12.286;2023-06-04T17:07:16;102287.84;;;24.47
34807;BMP280;18310;55.586;12.286;2023-06-04T17:10:22;102287.56;;;24.38
34807;BMP280;18310;55.586;12.286;2023-06-04T17:13:30;102288.81;;;24.30
34807;BMP280;18310;55.586;12.286;2023-06-04T17:16:33;102286.53;;;24.22
34807;BMP280;18310;55.586;12.286;2023-06-04T17:19:36;102278.59;;;24.17
34807;BMP280;18310;55.586;12.286;2023-06-04T17:22:41;102286.59;;;24.15